createdAt,value
2022-10-01T00:01:00.787Z,47.70
2022-10-01T00:03:49.365Z,47.80
2022-10-01T00:06:36.319Z,47.80
2022-10-01T00:09:23.787Z,47.80
2022-10-01T00:12:10.845Z,47.80
2022-10-01T00:14:58.091Z,47.70
2022-10-01T00:17:45.299Z,47.70
2022-10-01T00:20:34.069Z,47.80
2022-10-01T00:23:21.439Z,47.50
2022-10-01T00:26:14.956Z,47.30
2022-10-01T00:29:04.923Z,47.40
2022-10-01T00:31:52.135Z,47.50
2022-10-01T00:34:39.260Z,47.40
2022-10-01T00:37:28.058Z,47.30
2022-10-01T00:40:15.349Z,47.50
2022-10-01T00:43:02.371Z,47.50
2022-10-01T00:45:50.221Z,47.50
2022-10-01T00:48:45.775Z,47.70
2022-10-01T00:51:37.124Z,47.90
2022-10-01T00:54:32.973Z,48.00
2022-10-01T00:57:25.308Z,48.30
2022-10-01T01:00:14.076Z,48.50
2022-10-01T01:03:01.134Z,48.60
2022-10-01T01:05:50.219Z,48.60
2022-10-01T01:08:37.552Z,48.70
2022-10-01T01:11:37.170Z,48.90
2022-10-01T01:14:31.898Z,49.30
2022-10-01T01:17:26.569Z,49.20
2022-10-01T01:20:40.184Z,49.20
2022-10-01T01:24:17.923Z,49.30
2022-10-01T01:27:28.435Z,49.30
2022-10-01T01:30:18.626Z,49.40
2022-10-01T01:33:12.014Z,49.30
2022-10-01T01:36:04.622Z,49.40
2022-10-01T01:38:58.626Z,49.40
2022-10-01T01:41:53.342Z,49.60
2022-10-01T01:44:45.866Z,49.50
2022-10-01T01:47:35.795Z,49.30
2022-10-01T01:50:25.634Z,49.30
2022-10-01T01:53:13.720Z,49.30
2022-10-01T01:56:02.076Z,49.30
2022-10-01T01:58:49.334Z,49.30
2022-10-01T02:01:41.597Z,49.50
2022-10-01T02:04:37.125Z,49.50
2022-10-01T02:08:13.271Z,49.50
2022-10-01T02:11:16.462Z,49.50
2022-10-01T02:14:13.086Z,49.60
2022-10-01T02:17:07.170Z,49.50
2022-10-01T02:20:00.667Z,49.50
2022-10-01T02:22:53.939Z,49.60
2022-10-01T02:25:46.552Z,49.60
2022-10-01T02:28:35.302Z,49.60
2022-10-01T02:31:24.896Z,49.50
2022-10-01T02:34:20.001Z,49.60
2022-10-01T02:37:11.466Z,49.60
2022-10-01T02:40:00.948Z,49.60
2022-10-01T02:42:52.074Z,49.70
2022-10-01T02:45:42.281Z,49.70
2022-10-01T02:48:29.777Z,49.70
2022-10-01T02:51:29.122Z,49.70
2022-10-01T02:54:22.971Z,49.80
2022-10-01T02:57:27.507Z,49.70
2022-10-01T03:00:21.336Z,49.70
2022-10-01T03:03:08.547Z,49.60
2022-10-01T03:05:55.897Z,49.60
2022-10-01T03:08:42.977Z,49.70
2022-10-01T03:11:31.932Z,49.60
2022-10-01T03:14:19.446Z,49.50
2022-10-01T03:17:07.543Z,49.50
2022-10-01T03:19:54.684Z,49.50
2022-10-01T03:22:41.997Z,49.40
2022-10-01T03:25:29.401Z,49.40
2022-10-01T03:28:17.958Z,49.30
2022-10-01T03:31:11.048Z,49.30
2022-10-01T03:34:00.869Z,49.30
2022-10-01T03:36:48.508Z,49.30
2022-10-01T03:39:36.304Z,49.20
2022-10-01T03:42:23.835Z,49.30
2022-10-01T03:45:12.913Z,49.30
2022-10-01T03:47:59.898Z,49.20
2022-10-01T03:50:55.677Z,49.20
2022-10-01T03:53:42.688Z,49.10
2022-10-01T03:56:29.894Z,49.60
2022-10-01T03:59:17.323Z,49.70
2022-10-01T04:02:06.042Z,49.00
2022-10-01T04:04:53.260Z,48.80
2022-10-01T04:07:42.025Z,48.90
2022-10-01T04:10:29.419Z,48.80
2022-10-01T04:13:17.243Z,48.80
2022-10-01T04:16:05.903Z,48.80
2022-10-01T04:18:55.392Z,48.80
2022-10-01T04:21:42.814Z,48.80
2022-10-01T04:24:29.932Z,48.90
2022-10-01T04:27:17.115Z,49.00
2022-10-01T04:30:04.731Z,49.00
2022-10-01T04:32:52.007Z,49.20
2022-10-01T04:35:40.530Z,49.30
2022-10-01T04:38:27.830Z,49.60
2022-10-01T04:41:15.253Z,49.60
2022-10-01T04:44:02.568Z,49.70
2022-10-01T04:46:49.536Z,49.80
2022-10-01T04:49:37.140Z,50.00
2022-10-01T04:52:25.596Z,50.00
2022-10-01T04:55:13.357Z,50.20
2022-10-01T04:58:00.697Z,50.20
2022-10-01T05:00:47.895Z,51.10
2022-10-01T05:03:34.886Z,50.40
2022-10-01T05:06:21.914Z,50.40
2022-10-01T05:09:10.700Z,50.60
2022-10-01T05:11:57.928Z,50.70
2022-10-01T05:14:45.153Z,50.60
2022-10-01T05:17:33.192Z,50.80
2022-10-01T05:20:23.861Z,50.80
2022-10-01T05:23:11.071Z,50.90
2022-10-01T05:25:59.478Z,50.90
2022-10-01T05:28:46.564Z,51.10
2022-10-01T05:31:35.383Z,51.00
2022-10-01T05:34:22.730Z,51.10
2022-10-01T05:37:12.004Z,51.10
2022-10-01T05:39:59.363Z,51.20
2022-10-01T05:42:49.138Z,51.10
2022-10-01T05:45:36.702Z,51.30
2022-10-01T05:48:23.595Z,51.20
2022-10-01T05:51:10.766Z,51.20
2022-10-01T05:54:01.251Z,51.30
2022-10-01T05:56:48.701Z,51.30
2022-10-01T05:59:37.535Z,51.30
2022-10-01T06:02:25.190Z,51.50
2022-10-01T06:04:55.847Z,51.40
2022-10-01T06:07:24.576Z,51.50
2022-10-01T06:09:53.204Z,51.60
2022-10-01T06:12:21.819Z,51.70
2022-10-01T06:14:51.871Z,51.60
2022-10-01T06:17:20.439Z,51.80
2022-10-01T06:19:49.268Z,51.70
2022-10-01T06:22:17.899Z,51.70
2022-10-01T06:24:46.505Z,51.80
2022-10-01T06:27:15.054Z,51.80
2022-10-01T06:29:43.645Z,51.90
2022-10-01T06:32:18.684Z,51.80
2022-10-01T06:34:47.471Z,51.90
2022-10-01T06:37:16.316Z,51.90
2022-10-01T06:39:45.433Z,51.90
2022-10-01T06:42:14.113Z,51.90
2022-10-01T06:44:43.065Z,51.90
2022-10-01T06:47:13.018Z,52.00
2022-10-01T06:49:45.546Z,52.00
2022-10-01T06:52:33.545Z,52.00
2022-10-01T06:55:03.147Z,52.00
2022-10-01T06:57:34.103Z,52.00
2022-10-01T07:00:03.175Z,52.10
2022-10-01T07:02:33.348Z,52.10
2022-10-01T07:05:02.135Z,52.30
2022-10-01T07:07:31.631Z,52.20
2022-10-01T07:10:00.985Z,52.30
2022-10-01T07:12:29.931Z,52.30
2022-10-01T07:14:58.619Z,52.30
2022-10-01T07:17:27.363Z,52.40
2022-10-01T07:19:57.494Z,52.40
2022-10-01T07:22:26.223Z,52.50
2022-10-01T07:24:55.023Z,52.40
2022-10-01T07:27:23.821Z,52.40
2022-10-01T07:29:53.176Z,52.40
2022-10-01T07:32:21.797Z,52.40
2022-10-01T07:34:50.373Z,52.60
2022-10-01T07:37:21.594Z,52.80
2022-10-01T07:39:50.181Z,52.90
2022-10-01T07:42:18.862Z,52.70
2022-10-01T07:44:47.518Z,52.70
2022-10-01T07:47:16.186Z,52.60
2022-10-01T07:49:44.751Z,52.70
2022-10-01T07:52:13.595Z,52.70
2022-10-01T07:54:43.573Z,52.80
2022-10-01T07:57:12.178Z,52.80
2022-10-01T07:59:41.417Z,52.70
2022-10-01T08:02:16.353Z,52.70
2022-10-01T08:05:02.780Z,53.10
2022-10-01T08:07:32.546Z,53.50
2022-10-01T08:10:04.431Z,52.90
2022-10-01T08:12:33.128Z,52.90
2022-10-01T08:15:02.235Z,52.90
2022-10-01T08:17:30.989Z,52.90
2022-10-01T08:19:59.482Z,52.90
2022-10-01T08:22:28.090Z,53.00
2022-10-01T08:24:56.686Z,53.10
2022-10-01T08:27:27.507Z,53.10
2022-10-01T08:29:56.139Z,53.20
2022-10-01T08:32:28.070Z,53.20
2022-10-01T08:34:57.575Z,53.20
2022-10-01T08:37:28.304Z,53.30
2022-10-01T08:39:58.114Z,53.30
2022-10-01T08:42:50.149Z,54.00
2022-10-01T08:45:26.021Z,53.60
2022-10-01T08:48:03.020Z,53.50
2022-10-01T08:50:44.169Z,53.80
2022-10-01T08:53:22.807Z,53.80
2022-10-01T08:55:52.490Z,53.80
2022-10-01T08:58:30.683Z,53.50
2022-10-01T09:00:59.479Z,53.90
2022-10-01T09:03:31.919Z,53.60
2022-10-01T09:06:17.373Z,53.80
2022-10-01T09:09:10.739Z,54.10
2022-10-01T09:12:02.163Z,54.00
2022-10-01T09:14:55.130Z,54.00
2022-10-01T09:17:43.496Z,53.80
2022-10-01T09:20:22.538Z,53.80
2022-10-01T09:23:05.974Z,53.70
2022-10-01T09:25:38.771Z,53.90
2022-10-01T09:28:16.075Z,53.70
2022-10-01T09:30:56.796Z,54.00
2022-10-01T09:33:31.567Z,54.00
2022-10-01T09:36:13.694Z,53.80
2022-10-01T09:38:44.435Z,54.00
2022-10-01T09:41:14.815Z,53.90
2022-10-01T09:43:45.162Z,53.80
2022-10-01T09:46:17.668Z,53.90
2022-10-01T09:48:56.826Z,54.10
2022-10-01T09:51:39.405Z,54.30
2022-10-01T09:54:18.066Z,54.30
2022-10-01T09:56:52.313Z,54.30
2022-10-01T09:59:29.259Z,54.20
2022-10-01T10:02:00.815Z,54.30
2022-10-01T10:04:30.093Z,54.20
2022-10-01T10:07:03.913Z,54.20
2022-10-01T10:09:35.547Z,54.30
2022-10-01T10:12:08.373Z,54.30
2022-10-01T10:14:40.222Z,54.20
2022-10-01T10:17:16.791Z,54.30
2022-10-01T10:19:51.844Z,54.50
2022-10-01T10:22:25.063Z,54.40
2022-10-01T10:24:54.430Z,54.40
2022-10-01T10:27:28.501Z,54.30
2022-10-01T10:30:06.724Z,54.40
2022-10-01T10:32:36.948Z,54.60
2022-10-01T10:35:13.338Z,54.40
2022-10-01T10:37:48.759Z,54.60
2022-10-01T10:40:24.604Z,54.70
2022-10-01T10:42:57.850Z,54.60
2022-10-01T10:45:33.602Z,54.50
2022-10-01T10:48:06.697Z,54.80
2022-10-01T10:50:38.809Z,54.70
2022-10-01T10:53:22.397Z,54.70
2022-10-01T10:56:01.220Z,55.00
2022-10-01T10:58:33.277Z,54.90
2022-10-01T11:01:08.567Z,54.70
2022-10-01T11:03:44.493Z,54.80
2022-10-01T11:06:15.911Z,54.80
2022-10-01T11:08:44.880Z,54.90
2022-10-01T11:11:34.383Z,54.80
2022-10-01T11:14:23.947Z,55.20
2022-10-01T11:17:13.042Z,55.20
2022-10-01T11:20:05.325Z,55.20
2022-10-01T11:22:52.553Z,55.20
2022-10-01T11:25:35.597Z,55.20
2022-10-01T11:28:20.989Z,55.20
2022-10-01T11:30:59.869Z,55.30
2022-10-01T11:33:45.001Z,55.40
2022-10-01T11:36:24.896Z,55.40
2022-10-01T11:38:59.192Z,55.50
2022-10-01T11:41:32.994Z,55.40
2022-10-01T11:44:08.324Z,55.40
2022-10-01T11:46:50.530Z,55.50
2022-10-01T11:49:45.487Z,55.60
2022-10-01T11:52:32.737Z,55.70
2022-10-01T11:55:30.780Z,55.60
2022-10-01T11:58:24.488Z,55.70
2022-10-01T12:01:06.688Z,55.60
2022-10-01T12:03:47.014Z,55.70
2022-10-01T12:06:18.549Z,55.70
2022-10-01T12:08:56.425Z,55.60
2022-10-01T12:11:30.661Z,55.80
2022-10-01T12:14:05.354Z,55.80
2022-10-01T12:16:44.833Z,55.90
2022-10-01T12:19:21.658Z,56.00
2022-10-01T12:21:57.970Z,55.90
2022-10-01T12:24:31.421Z,56.00
2022-10-01T12:27:37.341Z,56.10
2022-10-01T12:30:12.146Z,56.30
2022-10-01T12:33:04.742Z,56.00
2022-10-01T12:35:55.766Z,56.30
2022-10-01T12:38:40.648Z,56.30
2022-10-01T12:41:32.539Z,56.20
2022-10-01T12:44:29.162Z,56.40
2022-10-01T12:47:17.927Z,56.30
2022-10-01T12:49:57.474Z,56.30
2022-10-01T12:52:39.018Z,56.20
2022-10-01T12:55:27.932Z,56.40
2022-10-01T12:58:07.967Z,56.50
2022-10-01T13:00:44.856Z,56.50
2022-10-01T13:03:38.218Z,56.50
2022-10-01T13:06:27.218Z,56.60
2022-10-01T13:09:12.900Z,57.30
2022-10-01T13:12:06.301Z,56.80
2022-10-01T13:14:36.984Z,56.70
2022-10-01T13:17:12.542Z,56.40
2022-10-01T13:19:48.367Z,56.50
2022-10-01T13:22:28.844Z,56.70
2022-10-01T13:25:04.152Z,56.70
2022-10-01T13:27:39.952Z,56.70
2022-10-01T13:30:20.430Z,56.80
2022-10-01T13:32:54.591Z,57.00
2022-10-01T13:35:31.577Z,57.00
2022-10-01T13:38:15.040Z,56.90
2022-10-01T13:40:44.290Z,56.80
2022-10-01T13:43:19.152Z,56.90
2022-10-01T13:45:54.381Z,57.20
2022-10-01T13:48:26.305Z,57.30
2022-10-01T13:51:04.316Z,57.20
2022-10-01T13:53:37.679Z,57.50
2022-10-01T13:56:07.608Z,57.30
2022-10-01T13:58:40.603Z,57.40
2022-10-01T14:01:31.171Z,57.50
2022-10-01T14:04:16.189Z,57.80
2022-10-01T14:06:51.558Z,57.70
2022-10-01T14:09:24.437Z,57.40
2022-10-01T14:12:15.986Z,57.50
2022-10-01T14:15:10.226Z,57.60
2022-10-01T14:17:40.683Z,57.80
2022-10-01T14:20:10.595Z,57.50
2022-10-01T14:23:01.191Z,57.50
2022-10-01T14:25:44.955Z,58.00
2022-10-01T14:28:44.149Z,57.90
2022-10-01T14:31:22.601Z,57.90
2022-10-01T14:34:48.336Z,57.60
2022-10-01T14:37:19.480Z,57.90
2022-10-01T14:39:48.065Z,57.40
2022-10-01T14:42:18.720Z,57.40
2022-10-01T14:44:48.599Z,57.50
2022-10-01T14:47:21.702Z,57.50
2022-10-01T14:49:56.899Z,57.80
2022-10-01T14:52:28.871Z,57.70
2022-10-01T14:55:02.821Z,57.70
2022-10-01T14:57:36.203Z,57.90
2022-10-01T15:00:10.605Z,57.90
2022-10-01T15:02:46.585Z,58.00
2022-10-01T15:05:24.040Z,58.20
2022-10-01T15:07:53.841Z,58.20
2022-10-01T15:10:26.322Z,57.90
2022-10-01T15:12:57.588Z,58.00
2022-10-01T15:15:30.873Z,58.00
2022-10-01T15:17:59.598Z,58.20
2022-10-01T15:20:29.657Z,58.00
2022-10-01T15:23:01.470Z,58.20
2022-10-01T15:25:33.539Z,58.10
2022-10-01T15:28:02.718Z,58.40
2022-10-01T15:30:32.218Z,58.10
2022-10-01T15:33:26.747Z,58.10
2022-10-01T15:35:59.160Z,58.60
2022-10-01T15:38:31.292Z,58.20
2022-10-01T15:41:26.630Z,58.10
2022-10-01T15:43:52.752Z,58.20
2022-10-01T15:46:32.367Z,58.10
2022-10-01T15:49:20.592Z,58.40
2022-10-01T15:52:09.206Z,58.60
2022-10-01T15:54:39.316Z,58.20
2022-10-01T15:57:09.196Z,58.00
2022-10-01T15:59:40.890Z,58.00
2022-10-01T16:02:18.732Z,58.00
2022-10-01T16:04:48.261Z,58.10
2022-10-01T16:07:27.508Z,58.00
2022-10-01T16:09:59.999Z,58.30
2022-10-01T16:12:29.958Z,58.10
2022-10-01T16:15:00.317Z,58.10
2022-10-01T16:17:34.542Z,58.00
2022-10-01T16:20:40.102Z,58.90
2022-10-01T16:23:37.285Z,58.40
2022-10-01T16:26:29.641Z,58.60
2022-10-01T16:29:00.057Z,58.20
2022-10-01T16:31:30.223Z,58.20
2022-10-01T16:33:58.949Z,58.40
2022-10-01T16:36:29.048Z,58.40
2022-10-01T16:38:57.964Z,58.60
2022-10-01T16:41:28.421Z,58.60
2022-10-01T16:43:59.155Z,58.60
2022-10-01T16:46:27.857Z,58.60
2022-10-01T16:48:56.766Z,58.60
2022-10-01T16:51:25.368Z,58.60
2022-10-01T16:53:57.073Z,58.50
2022-10-01T16:56:27.296Z,58.70
2022-10-01T16:58:56.013Z,58.60
2022-10-01T17:01:24.638Z,58.70
2022-10-01T17:03:53.276Z,58.60
2022-10-01T17:06:21.832Z,58.60
2022-10-01T17:08:50.419Z,58.60
2022-10-01T17:11:20.948Z,58.70
2022-10-01T17:13:49.597Z,58.80
2022-10-01T17:16:21.481Z,58.60
2022-10-01T17:18:53.129Z,58.60
2022-10-01T17:21:21.853Z,58.60
2022-10-01T17:23:53.487Z,58.70
2022-10-01T17:26:23.658Z,58.70
2022-10-01T17:28:52.324Z,58.70
2022-10-01T17:31:21.001Z,58.70
2022-10-01T17:33:51.496Z,58.70
2022-10-01T17:36:20.096Z,58.70
2022-10-01T17:38:48.796Z,58.80
2022-10-01T17:41:17.396Z,58.80
2022-10-01T17:43:49.842Z,58.80
2022-10-01T17:46:18.492Z,58.90
2022-10-01T17:48:49.952Z,58.80
2022-10-01T17:51:18.834Z,59.10
2022-10-01T17:53:47.931Z,58.90
2022-10-01T17:56:18.994Z,58.90
2022-10-01T17:58:49.396Z,59.00
2022-10-01T18:01:21.967Z,59.00
2022-10-01T18:03:55.517Z,59.10
2022-10-01T18:06:24.469Z,59.30
2022-10-01T18:08:56.002Z,59.10
2022-10-01T18:11:25.776Z,59.10
2022-10-01T18:13:55.976Z,59.10
2022-10-01T18:16:25.480Z,59.20
2022-10-01T18:21:47.395Z,59.30
2022-10-01T18:24:17.015Z,59.10
2022-10-01T18:26:46.161Z,59.20
2022-10-01T18:29:20.332Z,59.10
2022-10-01T18:31:53.872Z,59.40
2022-10-01T18:34:32.527Z,59.40
2022-10-01T18:37:06.677Z,59.40
2022-10-01T18:39:42.161Z,59.30
2022-10-01T18:42:17.887Z,59.30
2022-10-01T18:44:53.767Z,59.30
2022-10-01T18:47:36.824Z,59.40
2022-10-01T18:50:22.807Z,59.40
2022-10-01T18:53:08.275Z,59.30
2022-10-01T18:55:55.753Z,59.40
2022-10-01T18:59:06.673Z,59.40
2022-10-01T19:01:50.332Z,59.40
2022-10-01T19:05:10.352Z,59.30
2022-10-01T19:07:51.756Z,59.50
2022-10-01T19:10:31.364Z,59.20
2022-10-01T19:13:13.808Z,60.00
2022-10-01T19:15:57.940Z,59.30
2022-10-01T19:18:48.467Z,59.30
2022-10-01T19:21:28.525Z,59.50
2022-10-01T19:24:38.284Z,59.40
2022-10-01T19:27:21.156Z,59.50
2022-10-01T19:30:07.288Z,59.30
2022-10-01T19:32:43.576Z,59.50
2022-10-01T19:35:21.216Z,59.30
2022-10-01T19:37:53.698Z,59.50
2022-10-01T19:40:30.213Z,59.30
2022-10-01T19:43:08.968Z,59.40
2022-10-01T19:45:46.491Z,59.50
2022-10-01T19:48:21.583Z,59.50
2022-10-01T19:50:58.040Z,59.50
2022-10-01T19:53:31.166Z,59.50
2022-10-01T19:56:02.794Z,59.30
2022-10-01T19:58:33.689Z,59.30
2022-10-01T20:01:04.574Z,59.20
2022-10-01T20:03:59.380Z,59.20
2022-10-01T20:06:48.711Z,59.30
2022-10-01T20:09:42.790Z,59.10
2022-10-01T20:12:41.802Z,59.10
2022-10-01T20:15:42.833Z,59.10
2022-10-01T20:18:39.406Z,59.20
2022-10-01T20:21:44.331Z,59.10
2022-10-01T20:24:49.407Z,59.20
2022-10-01T20:27:50.360Z,59.20
2022-10-01T20:30:52.210Z,59.20
2022-10-01T20:33:52.156Z,59.10
2022-10-01T20:36:47.408Z,59.10
2022-10-01T20:39:42.156Z,59.70
2022-10-01T20:42:36.857Z,59.10
2022-10-01T20:45:28.400Z,59.20
2022-10-01T20:48:20.150Z,59.10
2022-10-01T20:51:15.556Z,59.10
2022-10-01T20:54:11.614Z,59.10
2022-10-01T20:57:09.796Z,59.20
2022-10-01T21:00:05.575Z,59.10
2022-10-01T21:02:58.412Z,59.00
2022-10-01T21:05:50.825Z,59.00
2022-10-01T21:08:50.135Z,59.10
2022-10-01T21:11:45.030Z,59.30
2022-10-01T21:14:40.812Z,59.10
2022-10-01T21:17:39.447Z,59.20
2022-10-01T21:20:50.725Z,59.20
2022-10-01T21:23:57.841Z,59.30
2022-10-01T21:26:57.785Z,59.30
2022-10-01T21:30:09.739Z,59.20
2022-10-01T21:33:15.123Z,59.30
2022-10-01T21:36:10.838Z,59.20
2022-10-01T21:39:05.895Z,59.10
2022-10-01T21:42:02.031Z,59.20
2022-10-01T21:45:13.760Z,59.30
2022-10-01T21:48:16.209Z,59.30
2022-10-01T21:51:16.245Z,59.20
2022-10-01T21:54:44.642Z,59.20
2022-10-01T21:58:01.447Z,59.20
2022-10-01T22:01:01.245Z,59.30
2022-10-01T22:03:52.230Z,59.20
2022-10-01T22:06:47.176Z,59.10
2022-10-01T22:09:40.437Z,59.10
2022-10-01T22:12:31.853Z,59.10
2022-10-01T22:15:25.995Z,59.10
2022-10-01T22:18:26.994Z,59.10
2022-10-01T22:21:21.125Z,59.20
2022-10-01T22:24:13.917Z,59.10
2022-10-01T22:27:09.257Z,59.10
2022-10-01T22:30:01.718Z,59.20
2022-10-01T22:32:55.189Z,59.10
2022-10-01T22:35:49.873Z,59.10
2022-10-01T22:38:45.519Z,59.10
2022-10-01T22:41:37.997Z,59.20
2022-10-01T22:44:26.779Z,59.10
2022-10-01T22:47:34.261Z,59.10
2022-10-01T22:50:44.701Z,59.20
2022-10-01T22:53:50.655Z,59.20
2022-10-01T22:56:47.280Z,59.20
2022-10-01T22:59:45.228Z,59.20
2022-10-01T23:02:37.419Z,59.20
2022-10-01T23:05:45.119Z,59.10
2022-10-01T23:08:43.479Z,59.90
2022-10-01T23:11:39.926Z,59.20
2022-10-01T23:14:53.271Z,59.20
2022-10-01T23:17:47.426Z,59.20
2022-10-01T23:20:40.581Z,59.10
2022-10-01T23:23:32.983Z,59.10
2022-10-01T23:26:37.437Z,59.20
2022-10-01T23:30:04.662Z,59.20
2022-10-01T23:33:24.889Z,59.20
2022-10-01T23:36:29.166Z,59.20
2022-10-01T23:39:48.371Z,59.10
2022-10-01T23:42:39.887Z,59.10
2022-10-01T23:45:32.131Z,59.00
2022-10-01T23:48:26.452Z,59.00
2022-10-01T23:51:22.924Z,59.00
2022-10-01T23:54:18.663Z,59.00
2022-10-01T23:57:12.719Z,59.10
